createdAt,value
2023-02-27T02:07:40.562Z,2
2023-02-27T04:22:27.046Z,0
2023-02-27T04:27:35.294Z,0
2023-02-27T04:56:29.631Z,0
2023-02-27T04:58:31.137Z,0
2023-02-27T05:00:19.536Z,0
2023-02-27T05:06:21.074Z,0
2023-02-27T05:07:28.327Z,0
2023-02-27T05:08:24.886Z,0
2023-02-27T05:18:28.035Z,0
2023-02-27T05:19:38.931Z,0
2023-02-27T05:20:35.194Z,0
2023-02-27T05:22:20.631Z,0
2023-02-27T05:23:26.780Z,0
2023-02-27T05:27:39.496Z,0
2023-02-27T05:30:30.377Z,0
2023-02-27T05:35:38.360Z,0
2023-02-27T05:36:27.828Z,0
2023-02-27T05:37:22.085Z,0
2023-02-27T05:38:27.664Z,0
2023-02-27T05:39:21.765Z,0
2023-02-27T05:42:40.018Z,0
2023-02-27T05:47:25.008Z,0
2023-02-27T05:51:20.843Z,0
2023-02-27T05:52:22.632Z,0
2023-02-27T05:53:28.404Z,0
2023-02-27T05:57:27.252Z,0
2023-02-27T05:58:32.679Z,0
2023-02-27T05:59:25.399Z,0
2023-02-27T06:00:29.134Z,0
2023-02-27T06:01:26.021Z,0
2023-02-27T06:02:24.485Z,0
2023-02-27T06:04:41.428Z,0
2023-02-27T06:06:29.937Z,0
2023-02-27T06:13:19.254Z,0
2023-02-27T06:15:24.565Z,0
2023-02-27T06:17:21.981Z,0
2023-02-27T06:20:38.982Z,0
2023-02-27T06:24:26.589Z,0
2023-02-27T06:25:30.456Z,0
2023-02-27T06:26:34.400Z,0
2023-02-27T06:31:28.939Z,0
2023-02-27T06:48:31.135Z,0
2023-02-27T06:52:25.623Z,0
2023-02-27T10:10:39.700Z,0
2023-02-27T10:12:28.360Z,0
2023-02-27T10:13:46.474Z,0
2023-02-27T10:27:27.341Z,0
2023-02-27T10:28:22.134Z,0
2023-02-27T10:29:24.855Z,0
2023-02-27T10:43:26.738Z,0
2023-02-27T10:48:24.192Z,0
2023-02-27T10:49:30.666Z,0
2023-02-27T10:57:30.713Z,0
2023-02-27T10:58:25.881Z,0
2023-02-27T10:59:23.654Z,0
2023-02-27T11:00:27.111Z,0
2023-02-27T11:01:29.181Z,0
2023-02-27T11:02:24.582Z,0
2023-02-27T11:03:19.687Z,0
2023-02-27T11:04:31.079Z,0
2023-02-27T11:05:27.406Z,0
2023-02-27T11:06:24.368Z,0
2023-02-27T11:07:32.294Z,0
2023-02-27T11:08:28.385Z,0
2023-02-27T11:09:23.626Z,0
2023-02-27T11:10:25.684Z,0
2023-02-27T11:11:23.996Z,0
2023-02-27T11:12:26.800Z,0
2023-02-27T11:13:26.407Z,0
2023-02-27T11:14:32.132Z,0
2023-02-27T11:15:29.669Z,0
2023-02-27T11:16:24.599Z,0
2023-02-27T11:17:20.352Z,0
2023-02-27T11:18:32.175Z,0
2023-02-27T11:19:26.049Z,0
2023-02-27T11:20:23.087Z,0
2023-02-27T11:21:23.280Z,0
2023-02-27T11:22:23.824Z,0
2023-02-27T11:23:29.130Z,0
2023-02-27T11:24:19.997Z,0
2023-02-27T11:25:24.398Z,0
2023-02-27T11:26:27.817Z,0
2023-02-27T11:27:23.574Z,0
2023-02-27T11:28:28.382Z,0
2023-02-27T11:29:28.869Z,0
2023-02-27T11:30:24.461Z,0
2023-02-27T11:31:33.748Z,0
2023-02-27T11:32:26.326Z,0
2023-02-27T11:33:21.192Z,0
2023-02-27T11:34:27.669Z,0
2023-02-27T11:35:31.866Z,0
2023-02-27T11:36:25.162Z,0
2023-02-27T11:37:24.963Z,0
2023-02-27T11:38:23.186Z,0
2023-02-27T11:39:24.449Z,0
2023-02-27T11:40:28.020Z,0
2023-02-27T11:41:29.898Z,0
2023-02-27T11:42:36.015Z,0
2023-02-27T11:43:27.998Z,0
2023-02-27T11:44:38.612Z,0
2023-02-27T11:46:13.609Z,0
2023-02-27T11:46:46.266Z,0
2023-02-27T11:46:48.954Z,0
2023-02-27T11:47:27.840Z,0
2023-02-27T11:48:25.668Z,0
2023-02-27T11:49:32.542Z,0
2023-02-27T11:50:19.983Z,0
2023-02-27T11:51:27.310Z,0
2023-02-27T11:52:20.237Z,0
2023-02-27T11:53:32.137Z,0
2023-02-27T11:54:26.078Z,0
2023-02-27T11:55:24.888Z,0
2023-02-27T11:56:25.055Z,0
2023-02-27T11:57:29.805Z,0
2023-02-27T11:58:24.081Z,0
2023-02-27T11:59:24.947Z,0
2023-02-27T12:00:30.421Z,0
2023-02-27T12:01:26.335Z,0
2023-02-27T12:02:32.159Z,0
2023-02-27T12:03:25.122Z,0
2023-02-27T12:04:28.515Z,0
2023-02-27T12:05:24.490Z,0
2023-02-27T12:06:22.855Z,0
2023-02-27T12:07:23.615Z,0
2023-02-27T12:08:26.531Z,0
2023-02-27T12:09:23.136Z,0
2023-02-27T12:10:28.118Z,0
2023-02-27T12:11:28.856Z,0
2023-02-27T12:12:39.495Z,0
2023-02-27T12:13:21.363Z,0
2023-02-27T12:14:23.976Z,0
2023-02-27T12:15:26.452Z,0
2023-02-27T12:16:26.553Z,0
2023-02-27T12:17:32.605Z,0
2023-02-27T12:18:28.345Z,0
2023-02-27T12:19:24.644Z,0
2023-02-27T12:20:22.307Z,0
2023-02-27T12:21:30.189Z,0
2023-02-27T12:22:26.394Z,0
2023-02-27T12:23:22.118Z,0
2023-02-27T12:24:23.614Z,0
2023-02-27T12:25:24.491Z,0
2023-02-27T12:26:19.637Z,0
2023-02-27T12:27:23.165Z,0
2023-02-27T12:28:33.714Z,0
2023-02-27T12:29:26.312Z,0
2023-02-27T12:30:22.621Z,0
2023-02-27T12:31:32.641Z,0
2023-02-27T12:32:30.423Z,0
2023-02-27T12:33:24.266Z,0
2023-02-27T12:34:34.034Z,0
2023-02-27T12:35:26.116Z,0
2023-02-27T12:36:26.258Z,1
2023-02-27T12:37:22.882Z,0
2023-02-27T12:38:33.143Z,0
2023-02-27T12:39:28.137Z,0
2023-02-27T12:40:24.317Z,0
2023-02-27T12:41:20.023Z,0
2023-02-27T12:42:29.807Z,0
2023-02-27T12:43:26.874Z,0
2023-02-27T12:44:27.610Z,2
2023-02-27T12:45:19.950Z,3
2023-02-27T12:46:30.639Z,0
2023-02-27T12:47:24.209Z,0
2023-02-27T12:48:20.189Z,0
2023-02-27T12:49:30.130Z,0
2023-02-27T12:50:25.886Z,3
2023-02-27T12:51:24.375Z,1
2023-02-27T12:52:24.965Z,0
2023-02-27T12:53:27.743Z,0
2023-02-27T12:54:19.721Z,0
2023-02-27T12:55:25.085Z,0
2023-02-27T12:56:23.415Z,0
2023-02-27T12:57:28.209Z,0
2023-02-27T12:58:29.342Z,0
2023-02-27T12:59:28.235Z,0
2023-02-27T13:00:25.053Z,0
2023-02-27T13:01:23.911Z,0
2023-02-27T13:02:19.900Z,0
2023-02-27T13:03:20.754Z,0
2023-02-27T13:04:28.348Z,0
2023-02-27T13:05:24.742Z,0
2023-02-27T13:06:32.515Z,1
2023-02-27T13:07:26.819Z,0
2023-02-27T13:08:26.979Z,0
2023-02-27T13:09:25.823Z,0
2023-02-27T13:10:30.436Z,0
2023-02-27T13:11:26.877Z,0
2023-02-27T13:12:23.700Z,0
2023-02-27T13:13:32.333Z,0
2023-02-27T13:14:29.506Z,0
2023-02-27T13:15:23.438Z,0
2023-02-27T13:16:20.148Z,0
2023-02-27T13:17:33.565Z,0
2023-02-27T13:18:39.615Z,0
2023-02-27T13:19:24.952Z,0
2023-02-27T13:20:26.953Z,0
2023-02-27T13:21:29.374Z,0
2023-02-27T13:22:27.083Z,0
2023-02-27T13:23:21.198Z,0
2023-02-27T13:24:30.345Z,0
2023-02-27T13:25:26.376Z,0
2023-02-27T13:26:29.105Z,0
2023-02-27T13:27:32.191Z,2
2023-02-27T13:28:28.298Z,1
2023-02-27T13:29:25.994Z,0
2023-02-27T13:30:24.192Z,0
2023-02-27T13:31:31.478Z,0
2023-02-27T13:32:36.488Z,0
2023-02-27T13:33:24.988Z,0
2023-02-27T13:34:20.691Z,0
2023-02-27T13:35:28.320Z,0
2023-02-27T13:36:25.700Z,0
2023-02-27T13:37:20.515Z,0
2023-02-27T13:38:23.390Z,0
2023-02-27T13:39:27.743Z,0
2023-02-27T13:40:23.150Z,0
2023-02-27T13:41:25.315Z,0
2023-02-27T13:42:28.322Z,0
2023-02-27T13:43:24.903Z,0
2023-02-27T13:44:22.461Z,0
2023-02-27T13:45:25.262Z,0
2023-02-27T13:46:27.639Z,1
2023-02-27T13:47:35.539Z,0
2023-02-27T13:48:24.382Z,3
2023-02-27T13:49:29.363Z,2
2023-02-27T13:50:24.352Z,0
2023-02-27T13:51:24.187Z,0
2023-02-27T13:52:30.486Z,0
2023-02-27T13:53:24.101Z,0
2023-02-27T13:54:27.232Z,0
2023-02-27T13:55:26.246Z,0
2023-02-27T13:56:25.303Z,2
2023-02-27T13:57:26.615Z,3
2023-02-27T13:58:22.134Z,6
2023-02-27T13:59:24.041Z,3
2023-02-27T14:00:28.138Z,0
2023-02-27T14:01:19.901Z,1
2023-02-27T14:02:30.264Z,2
2023-02-27T14:03:30.528Z,2
2023-02-27T14:04:24.706Z,2
2023-02-27T14:05:23.210Z,2
2023-02-27T14:06:25.510Z,3
2023-02-27T14:07:26.066Z,2
2023-02-27T14:08:36.394Z,1
2023-02-27T14:09:40.382Z,0
2023-02-27T14:10:28.951Z,0
2023-02-27T14:11:28.213Z,0
2023-02-27T14:12:21.577Z,0
2023-02-27T14:13:27.836Z,1
2023-02-27T14:14:26.082Z,2
2023-02-27T14:15:30.596Z,5
2023-02-27T14:16:23.159Z,4
2023-02-27T14:17:29.016Z,2
2023-02-27T14:18:33.641Z,2
2023-02-27T14:19:24.027Z,2
2023-02-27T14:20:48.613Z,4
2023-02-27T14:21:26.796Z,4
2023-02-27T14:22:26.112Z,4
2023-02-27T14:23:27.752Z,2
2023-02-27T14:24:25.289Z,0
2023-02-27T14:25:24.247Z,0
2023-02-27T14:26:20.271Z,2
2023-02-27T14:27:20.577Z,2
2023-02-27T14:28:20.281Z,0
2023-02-27T14:29:24.641Z,0
2023-02-27T14:30:34.749Z,3
2023-02-27T14:31:23.918Z,3
2023-02-27T14:32:24.598Z,5
2023-02-27T14:33:39.273Z,3
2023-02-27T14:34:25.224Z,1
2023-02-27T14:35:27.230Z,0
2023-02-27T14:36:24.742Z,3
2023-02-27T14:37:34.375Z,1
2023-02-27T14:38:28.048Z,0
2023-02-27T14:39:21.565Z,2
2023-02-27T14:40:29.321Z,5
2023-02-27T14:41:30.399Z,6
2023-02-27T14:42:25.484Z,5
2023-02-27T14:43:22.105Z,4
2023-02-27T14:44:32.980Z,3
2023-02-27T14:45:27.979Z,8
2023-02-27T14:46:24.474Z,9
2023-02-27T14:47:23.358Z,4
2023-02-27T14:48:34.399Z,2
2023-02-27T14:49:27.146Z,2
2023-02-27T14:50:23.972Z,6
2023-02-27T14:51:34.125Z,4
2023-02-27T14:52:28.303Z,6
2023-02-27T14:53:25.978Z,3
2023-02-27T14:54:23.703Z,0
2023-02-27T14:55:30.714Z,2
2023-02-27T14:56:33.967Z,2
2023-02-27T14:57:24.188Z,3
2023-02-27T14:58:32.098Z,1
2023-02-27T14:59:29.765Z,6
2023-02-27T15:00:24.303Z,7
2023-02-27T15:01:26.393Z,7
2023-02-27T15:02:30.108Z,3
2023-02-27T15:03:26.233Z,1
2023-02-27T15:04:26.590Z,5
2023-02-27T15:05:35.172Z,5
2023-02-27T15:06:28.654Z,4
2023-02-27T15:07:27.521Z,1
2023-02-27T15:08:22.150Z,2
2023-02-27T15:09:23.279Z,1
2023-02-27T15:10:26.220Z,0
2023-02-27T15:11:27.421Z,2
2023-02-27T15:12:23.614Z,2
2023-02-27T15:13:30.403Z,2
2023-02-27T15:14:26.220Z,4
2023-02-27T15:15:50.699Z,6
2023-02-27T15:16:30.463Z,5
2023-02-27T15:17:22.876Z,3
2023-02-27T15:18:24.435Z,3
2023-02-27T15:19:28.688Z,3
2023-02-27T15:20:20.385Z,1
2023-02-27T15:21:24.590Z,4
2023-02-27T15:22:36.425Z,6
2023-02-27T15:23:33.487Z,6
2023-02-27T15:24:29.777Z,5
2023-02-27T15:25:23.505Z,4
2023-02-27T15:26:33.755Z,3
2023-02-27T15:27:24.305Z,5
2023-02-27T15:28:24.262Z,1
2023-02-27T15:29:20.660Z,3
2023-02-27T15:30:32.586Z,6
2023-02-27T15:31:30.896Z,5
2023-02-27T15:32:24.149Z,5
2023-02-27T15:33:23.501Z,1
2023-02-27T15:34:29.538Z,2
2023-02-27T15:35:21.260Z,2
2023-02-27T15:36:20.194Z,2
2023-02-27T15:37:32.354Z,2
2023-02-27T15:38:26.482Z,0
2023-02-27T15:39:25.959Z,3
2023-02-27T15:40:32.259Z,5
2023-02-27T15:41:33.887Z,1
2023-02-27T15:42:25.534Z,0
2023-02-27T15:43:22.123Z,3
2023-02-27T15:44:32.034Z,2
2023-02-27T15:45:26.304Z,0
2023-02-27T15:46:26.490Z,0
2023-02-27T15:47:27.666Z,3
2023-02-27T15:48:28.024Z,2
2023-02-27T15:49:30.705Z,4
2023-02-27T15:50:22.597Z,4
2023-02-27T15:51:24.658Z,4
2023-02-27T15:52:27.991Z,5
2023-02-27T15:53:23.734Z,5
2023-02-27T15:54:32.531Z,2
2023-02-27T15:55:24.510Z,1
2023-02-27T15:56:24.091Z,1
2023-02-27T15:57:23.623Z,2
2023-02-27T15:58:25.386Z,2
2023-02-27T15:59:27.451Z,4
2023-02-27T16:00:41.128Z,5
2023-02-27T16:01:33.704Z,5
2023-02-27T16:02:26.641Z,3
2023-02-27T16:03:24.052Z,3
2023-02-27T16:04:23.146Z,4
2023-02-27T16:05:26.186Z,4
2023-02-27T16:06:27.318Z,4
2023-02-27T16:07:25.064Z,4
2023-02-27T16:08:32.670Z,4
2023-02-27T16:09:24.207Z,5
2023-02-27T16:10:25.689Z,4
2023-02-27T16:11:21.106Z,5
2023-02-27T16:12:27.471Z,6
2023-02-27T16:13:21.512Z,5
2023-02-27T16:14:22.627Z,6
2023-02-27T16:15:33.389Z,5
2023-02-27T16:16:28.517Z,5
2023-02-27T16:17:26.040Z,6
2023-02-27T16:18:21.533Z,2
2023-02-27T16:19:35.199Z,3
2023-02-27T16:20:26.918Z,8
2023-02-27T16:21:24.324Z,6
2023-02-27T16:22:34.339Z,3
2023-02-27T16:23:29.520Z,5
2023-02-27T16:24:30.454Z,7
2023-02-27T16:25:22.814Z,5
2023-02-27T16:26:31.215Z,4
2023-02-27T16:27:28.183Z,2
2023-02-27T16:28:25.887Z,2
2023-02-27T16:29:46.806Z,4
2023-02-27T16:30:29.836Z,4
2023-02-27T16:31:24.306Z,3
2023-02-27T16:32:21.913Z,3
2023-02-27T16:33:21.021Z,1
2023-02-27T16:34:35.519Z,1
2023-02-27T16:35:26.312Z,0
2023-02-27T16:36:33.566Z,0
2023-02-27T16:37:28.686Z,2
2023-02-27T16:38:26.001Z,4
2023-02-27T16:39:19.944Z,3
2023-02-27T16:40:27.077Z,0
2023-02-27T16:41:32.134Z,3
2023-02-27T16:42:19.473Z,3
2023-02-27T16:43:25.209Z,4
2023-02-27T16:45:25.816Z,1
2023-02-27T16:46:21.660Z,4
2023-02-27T16:47:31.771Z,3
2023-02-27T16:48:25.472Z,1
2023-02-27T16:49:20.353Z,0
2023-02-27T16:50:28.240Z,0
2023-02-27T16:51:28.050Z,0
2023-02-27T16:52:28.137Z,0
2023-02-27T16:53:22.793Z,1
2023-02-27T16:54:30.332Z,3
2023-02-27T16:56:23.736Z,3
2023-02-27T16:57:31.042Z,2
2023-02-27T16:58:23.286Z,2
2023-02-27T17:00:35.736Z,1
2023-02-27T17:01:48.942Z,1
2023-02-27T23:57:50.236Z,0
2023-02-27T23:59:25.251Z,0
